sensor_id;sensor_type;location;lat;lon;timestamp;temperature;humidity
54518;DHT22;40423;53.176;6.002;2023-08-20T00:00:16;16.10;99.90
54518;DHT22;40423;53.176;6.002;2023-08-20T00:02:50;16.10;99.90
54518;DHT22;40423;53.176;6.002;2023-08-20T00:05:17;16.10;99.90
54518;DHT22;40423;53.176;6.002;2023-08-20T00:07:43;16.00;99.90
54518;DHT22;40423;53.176;6.002;2023-08-20T00:10:16;16.00;99.90
54518;DHT22;40423;53.176;6.002;2023-08-20T00:12:43;16.00;99.90
54518;DHT22;40423;53.176;6.002;2023-08-20T00:15:09;16.00;99.90
54518;DHT22;40423;53.176;6.002;2023-08-20T00:17:36;16.00;99.90
54518;DHT22;40423;53.176;6.002;2023-08-20T00:20:03;15.90;99.90
54518;DHT22;40423;53.176;6.002;2023-08-20T00:22:36;15.90;99.90
54518;DHT22;40423;53.176;6.002;2023-08-20T00:25:03;16.00;99.90
54518;DHT22;40423;53.176;6.002;2023-08-20T00:27:31;15.90;99.90
54518;DHT22;40423;53.176;6.002;2023-08-20T00:29:56;16.00;99.90
54518;DHT22;40423;53.176;6.002;2023-08-20T00:32:22;16.00;99.90
54518;DHT22;40423;53.176;6.002;2023-08-20T00:34:48;16.00;99.90
54518;DHT22;40423;53.176;6.002;2023-08-20T00:37:14;16.00;99.90
54518;DHT22;40423;53.176;6.002;2023-08-20T00:39:40;15.90;99.90
54518;DHT22;40423;53.176;6.002;2023-08-20T00:42:06;15.90;99.90
54518;DHT22;40423;53.176;6.002;2023-08-20T00:44:33;15.90;99.90
54518;DHT22;40423;53.176;6.002;2023-08-20T00:47:03;15.90;99.90
54518;DHT22;40423;53.176;6.002;2023-08-20T00:49:31;15.90;99.90
54518;DHT22;40423;53.176;6.002;2023-08-20T00:51:57;15.90;99.90
54518;DHT22;40423;53.176;6.002;2023-08-20T00:54:24;15.80;99.90
54518;DHT22;40423;53.176;6.002;2023-08-20T00:56:50;15.80;99.90
54518;DHT22;40423;53.176;6.002;2023-08-20T00:59:16;15.80;99.90
54518;DHT22;40423;53.176;6.002;2023-08-20T01:01:43;15.80;99.90
54518;DHT22;40423;53.176;6.002;2023-08-20T01:04:09;15.80;99.90
54518;DHT22;40423;53.176;6.002;2023-08-20T01:06:56;15.80;99.90
54518;DHT22;40423;53.176;6.002;2023-08-20T01:11:56;15.80;99.90
54518;DHT22;40423;53.176;6.002;2023-08-20T01:14:23;15.80;99.90
54518;DHT22;40423;53.176;6.002;2023-08-20T01:16:49;15.80;99.90
54518;DHT22;40423;53.176;6.002;2023-08-20T01:19:18;15.80;99.90
54518;DHT22;40423;53.176;6.002;2023-08-20T01:27:48;15.80;99.90
54518;DHT22;40423;53.176;6.002;2023-08-20T01:30:18;15.70;99.90
54518;DHT22;40423;53.176;6.002;2023-08-20T01:32:45;15.70;99.90
54518;DHT22;40423;53.176;6.002;2023-08-20T01:35:12;15.70;99.90
54518;DHT22;40423;53.176;6.002;2023-08-20T01:37:41;15.70;99.90
54518;DHT22;40423;53.176;6.002;2023-08-20T01:40:07;15.70;99.90
54518;DHT22;40423;53.176;6.002;2023-08-20T01:42:37;15.70;99.90
54518;DHT22;40423;53.176;6.002;2023-08-20T01:45:04;15.70;99.90
54518;DHT22;40423;53.176;6.002;2023-08-20T01:47:31;15.70;99.90
54518;DHT22;40423;53.176;6.002;2023-08-20T01:49:57;15.70;99.90
54518;DHT22;40423;53.176;6.002;2023-08-20T01:52:22;15.70;99.90
54518;DHT22;40423;53.176;6.002;2023-08-20T01:54:48;15.70;99.90
54518;DHT22;40423;53.176;6.002;2023-08-20T01:57:15;15.70;99.90
54518;DHT22;40423;53.176;6.002;2023-08-20T01:59:40;15.70;99.90
54518;DHT22;40423;53.176;6.002;2023-08-20T02:02:06;15.70;99.90
54518;DHT22;40423;53.176;6.002;2023-08-20T02:04:32;15.60;99.90
54518;DHT22;40423;53.176;6.002;2023-08-20T02:06:58;15.60;99.90
54518;DHT22;40423;53.176;6.002;2023-08-20T02:09:24;15.60;99.90
54518;DHT22;40423;53.176;6.002;2023-08-20T02:11:50;15.60;99.90
54518;DHT22;40423;53.176;6.002;2023-08-20T02:14:16;15.60;99.90
54518;DHT22;40423;53.176;6.002;2023-08-20T02:16:42;15.60;99.90
54518;DHT22;40423;53.176;6.002;2023-08-20T02:19:08;15.60;99.90
54518;DHT22;40423;53.176;6.002;2023-08-20T02:21:34;15.60;99.90
54518;DHT22;40423;53.176;6.002;2023-08-20T02:24:00;15.60;99.90
54518;DHT22;40423;53.176;6.002;2023-08-20T02:26:25;15.70;99.90
54518;DHT22;40423;53.176;6.002;2023-08-20T02:28:51;15.70;99.90
54518;DHT22;40423;53.176;6.002;2023-08-20T02:31:17;15.70;99.90
54518;DHT22;40423;53.176;6.002;2023-08-20T02:33:43;15.70;99.90
54518;DHT22;40423;53.176;6.002;2023-08-20T02:36:08;15.70;99.90
54518;DHT22;40423;53.176;6.002;2023-08-20T02:38:34;15.70;99.90
54518;DHT22;40423;53.176;6.002;2023-08-20T02:41:01;15.70;99.90
54518;DHT22;40423;53.176;6.002;2023-08-20T02:43:28;15.70;99.90
54518;DHT22;40423;53.176;6.002;2023-08-20T02:45:54;15.70;99.90
54518;DHT22;40423;53.176;6.002;2023-08-20T02:48:20;15.70;99.90
54518;DHT22;40423;53.176;6.002;2023-08-20T02:50:46;15.70;99.90
54518;DHT22;40423;53.176;6.002;2023-08-20T02:53:12;15.70;99.90
54518;DHT22;40423;53.176;6.002;2023-08-20T02:55:38;15.70;99.90
54518;DHT22;40423;53.176;6.002;2023-08-20T02:58:03;15.70;99.90
54518;DHT22;40423;53.176;6.002;2023-08-20T03:00:30;15.70;99.90
54518;DHT22;40423;53.176;6.002;2023-08-20T03:02:56;15.60;99.90
54518;DHT22;40423;53.176;6.002;2023-08-20T03:05:22;15.60;99.90
54518;DHT22;40423;53.176;6.002;2023-08-20T03:07:48;15.60;99.90
54518;DHT22;40423;53.176;6.002;2023-08-20T03:10:14;15.60;99.90
54518;DHT22;40423;53.176;6.002;2023-08-20T03:12:40;15.60;99.90
54518;DHT22;40423;53.176;6.002;2023-08-20T03:15:06;15.60;99.90
54518;DHT22;40423;53.176;6.002;2023-08-20T03:17:32;15.60;99.90
54518;DHT22;40423;53.176;6.002;2023-08-20T03:19:59;15.60;99.90
54518;DHT22;40423;53.176;6.002;2023-08-20T03:22:26;15.60;99.90
54518;DHT22;40423;53.176;6.002;2023-08-20T03:24:52;15.60;99.90
54518;DHT22;40423;53.176;6.002;2023-08-20T03:27:19;15.60;99.90
54518;DHT22;40423;53.176;6.002;2023-08-20T03:29:45;15.60;99.90
54518;DHT22;40423;53.176;6.002;2023-08-20T03:32:11;15.60;99.90
54518;DHT22;40423;53.176;6.002;2023-08-20T03:34:37;15.60;99.90
54518;DHT22;40423;53.176;6.002;2023-08-20T03:37:03;15.50;99.90
54518;DHT22;40423;53.176;6.002;2023-08-20T03:39:30;15.50;99.90
54518;DHT22;40423;53.176;6.002;2023-08-20T03:41:57;15.50;99.90
54518;DHT22;40423;53.176;6.002;2023-08-20T03:44:23;15.50;99.90
54518;DHT22;40423;53.176;6.002;2023-08-20T03:46:49;15.50;99.90
54518;DHT22;40423;53.176;6.002;2023-08-20T03:49:15;15.50;99.90
54518;DHT22;40423;53.176;6.002;2023-08-20T03:51:41;15.50;99.90
54518;DHT22;40423;53.176;6.002;2023-08-20T03:54:08;15.50;99.90
54518;DHT22;40423;53.176;6.002;2023-08-20T03:56:34;15.50;99.90
54518;DHT22;40423;53.176;6.002;2023-08-20T03:59:01;15.50;99.90
54518;DHT22;40423;53.176;6.002;2023-08-20T04:01:26;15.40;99.90
54518;DHT22;40423;53.176;6.002;2023-08-20T04:03:52;15.50;99.90
54518;DHT22;40423;53.176;6.002;2023-08-20T04:06:18;15.40;99.90
54518;DHT22;40423;53.176;6.002;2023-08-20T04:08:44;15.40;99.90
54518;DHT22;40423;53.176;6.002;2023-08-20T04:11:09;15.40;99.90
54518;DHT22;40423;53.176;6.002;2023-08-20T04:13:35;15.40;99.90
54518;DHT22;40423;53.176;6.002;2023-08-20T04:16:01;15.40;99.90
54518;DHT22;40423;53.176;6.002;2023-08-20T04:18:26;15.40;99.90
54518;DHT22;40423;53.176;6.002;2023-08-20T04:20:53;15.40;99.90
54518;DHT22;40423;53.176;6.002;2023-08-20T04:23:22;15.40;99.90
54518;DHT22;40423;53.176;6.002;2023-08-20T04:25:47;15.40;99.90
54518;DHT22;40423;53.176;6.002;2023-08-20T04:28:13;15.40;99.90
54518;DHT22;40423;53.176;6.002;2023-08-20T04:30:39;15.40;99.90
54518;DHT22;40423;53.176;6.002;2023-08-20T04:33:05;15.40;99.90
54518;DHT22;40423;53.176;6.002;2023-08-20T04:35:31;15.40;99.90
54518;DHT22;40423;53.176;6.002;2023-08-20T04:37:58;15.40;99.90
54518;DHT22;40423;53.176;6.002;2023-08-20T04:40:23;15.50;99.90
54518;DHT22;40423;53.176;6.002;2023-08-20T04:42:49;15.50;99.90
54518;DHT22;40423;53.176;6.002;2023-08-20T04:45:15;15.50;99.90
54518;DHT22;40423;53.176;6.002;2023-08-20T04:47:43;15.50;99.90
54518;DHT22;40423;53.176;6.002;2023-08-20T04:50:09;15.50;99.90
54518;DHT22;40423;53.176;6.002;2023-08-20T04:52:35;15.50;99.90
54518;DHT22;40423;53.176;6.002;2023-08-20T04:55:01;15.50;99.90
54518;DHT22;40423;53.176;6.002;2023-08-20T04:57:27;15.50;99.90
54518;DHT22;40423;53.176;6.002;2023-08-20T04:59:52;15.60;99.90
54518;DHT22;40423;53.176;6.002;2023-08-20T05:02:18;15.60;99.90
54518;DHT22;40423;53.176;6.002;2023-08-20T05:04:44;15.60;99.90
54518;DHT22;40423;53.176;6.002;2023-08-20T05:07:10;15.70;99.90
54518;DHT22;40423;53.176;6.002;2023-08-20T05:09:36;15.70;99.90
54518;DHT22;40423;53.176;6.002;2023-08-20T05:12:02;15.70;99.90
54518;DHT22;40423;53.176;6.002;2023-08-20T05:14:28;15.70;99.90
54518;DHT22;40423;53.176;6.002;2023-08-20T05:16:55;15.80;99.90
54518;DHT22;40423;53.176;6.002;2023-08-20T05:19:21;15.80;99.90
54518;DHT22;40423;53.176;6.002;2023-08-20T05:21:47;15.90;99.90
54518;DHT22;40423;53.176;6.002;2023-08-20T05:24:12;16.00;99.90
54518;DHT22;40423;53.176;6.002;2023-08-20T05:26:38;16.00;99.90
54518;DHT22;40423;53.176;6.002;2023-08-20T05:29:04;16.10;99.90
54518;DHT22;40423;53.176;6.002;2023-08-20T05:31:29;16.10;99.90
54518;DHT22;40423;53.176;6.002;2023-08-20T05:33:55;16.20;99.90
54518;DHT22;40423;53.176;6.002;2023-08-20T05:36:21;16.20;99.90
54518;DHT22;40423;53.176;6.002;2023-08-20T05:38:47;16.20;99.90
54518;DHT22;40423;53.176;6.002;2023-08-20T05:41:12;16.30;99.90
54518;DHT22;40423;53.176;6.002;2023-08-20T05:43:38;16.30;99.90
54518;DHT22;40423;53.176;6.002;2023-08-20T05:46:04;16.40;99.90
54518;DHT22;40423;53.176;6.002;2023-08-20T05:48:29;16.50;99.90
54518;DHT22;40423;53.176;6.002;2023-08-20T05:50:55;16.60;99.90
54518;DHT22;40423;53.176;6.002;2023-08-20T05:53:24;16.60;99.90
54518;DHT22;40423;53.176;6.002;2023-08-20T05:55:50;16.70;99.90
54518;DHT22;40423;53.176;6.002;2023-08-20T05:58:16;16.70;99.90
54518;DHT22;40423;53.176;6.002;2023-08-20T06:00:41;16.80;99.90
54518;DHT22;40423;53.176;6.002;2023-08-20T06:03:08;16.90;99.90
54518;DHT22;40423;53.176;6.002;2023-08-20T06:05:34;16.90;99.90
54518;DHT22;40423;53.176;6.002;2023-08-20T06:08:00;17.00;99.90
54518;DHT22;40423;53.176;6.002;2023-08-20T06:10:26;17.10;99.90
54518;DHT22;40423;53.176;6.002;2023-08-20T06:12:52;17.10;99.90
54518;DHT22;40423;53.176;6.002;2023-08-20T06:15:18;17.20;99.90
54518;DHT22;40423;53.176;6.002;2023-08-20T06:17:44;17.30;99.90
54518;DHT22;40423;53.176;6.002;2023-08-20T06:20:10;17.40;99.90
54518;DHT22;40423;53.176;6.002;2023-08-20T06:22:37;17.50;99.90
54518;DHT22;40423;53.176;6.002;2023-08-20T06:25:04;17.60;99.90
54518;DHT22;40423;53.176;6.002;2023-08-20T06:27:30;17.70;99.90
54518;DHT22;40423;53.176;6.002;2023-08-20T06:29:56;17.70;99.90
54518;DHT22;40423;53.176;6.002;2023-08-20T06:32:23;17.90;99.90
54518;DHT22;40423;53.176;6.002;2023-08-20T06:34:49;18.00;99.90
54518;DHT22;40423;53.176;6.002;2023-08-20T06:37:15;18.10;99.90
54518;DHT22;40423;53.176;6.002;2023-08-20T06:39:40;18.20;99.90
54518;DHT22;40423;53.176;6.002;2023-08-20T06:42:06;18.20;99.90
54518;DHT22;40423;53.176;6.002;2023-08-20T06:44:32;18.30;99.90
54518;DHT22;40423;53.176;6.002;2023-08-20T06:46:57;18.40;99.90
54518;DHT22;40423;53.176;6.002;2023-08-20T06:49:23;18.50;99.90
54518;DHT22;40423;53.176;6.002;2023-08-20T06:51:49;18.60;99.90
54518;DHT22;40423;53.176;6.002;2023-08-20T06:57:55;18.80;99.90
54518;DHT22;40423;53.176;6.002;2023-08-20T07:00:21;18.90;99.90
54518;DHT22;40423;53.176;6.002;2023-08-20T07:02:47;19.00;99.90
54518;DHT22;40423;53.176;6.002;2023-08-20T07:05:12;19.10;99.90
54518;DHT22;40423;53.176;6.002;2023-08-20T07:07:40;19.20;99.90
54518;DHT22;40423;53.176;6.002;2023-08-20T07:10:06;19.30;99.90
54518;DHT22;40423;53.176;6.002;2023-08-20T07:12:32;19.40;99.90
54518;DHT22;40423;53.176;6.002;2023-08-20T07:14:57;19.40;99.90
54518;DHT22;40423;53.176;6.002;2023-08-20T07:17:23;19.50;99.90
54518;DHT22;40423;53.176;6.002;2023-08-20T07:19:49;19.60;99.90
54518;DHT22;40423;53.176;6.002;2023-08-20T07:22:14;19.70;99.90
54518;DHT22;40423;53.176;6.002;2023-08-20T07:24:40;19.80;99.90
54518;DHT22;40423;53.176;6.002;2023-08-20T07:27:06;19.90;99.90
54518;DHT22;40423;53.176;6.002;2023-08-20T07:29:36;20.00;99.90
54518;DHT22;40423;53.176;6.002;2023-08-20T07:32:02;20.10;99.90
54518;DHT22;40423;53.176;6.002;2023-08-20T07:34:29;20.20;99.90
54518;DHT22;40423;53.176;6.002;2023-08-20T07:36:56;20.30;99.90
54518;DHT22;40423;53.176;6.002;2023-08-20T07:39:22;20.40;99.90
54518;DHT22;40423;53.176;6.002;2023-08-20T07:41:48;20.50;99.90
54518;DHT22;40423;53.176;6.002;2023-08-20T07:44:13;20.60;99.90
54518;DHT22;40423;53.176;6.002;2023-08-20T07:46:39;20.60;99.90
54518;DHT22;40423;53.176;6.002;2023-08-20T07:49:05;20.70;99.90
54518;DHT22;40423;53.176;6.002;2023-08-20T07:51:31;20.80;99.90
54518;DHT22;40423;53.176;6.002;2023-08-20T07:53:56;20.90;99.90
54518;DHT22;40423;53.176;6.002;2023-08-20T07:56:23;20.90;99.90
54518;DHT22;40423;53.176;6.002;2023-08-20T07:58:49;21.00;99.90
54518;DHT22;40423;53.176;6.002;2023-08-20T08:01:15;21.10;99.90
54518;DHT22;40423;53.176;6.002;2023-08-20T08:03:42;21.30;99.90
54518;DHT22;40423;53.176;6.002;2023-08-20T08:06:08;21.20;99.90
54518;DHT22;40423;53.176;6.002;2023-08-20T08:08:33;21.40;99.90
54518;DHT22;40423;53.176;6.002;2023-08-20T08:10:59;21.40;99.90
54518;DHT22;40423;53.176;6.002;2023-08-20T08:13:25;21.30;99.90
54518;DHT22;40423;53.176;6.002;2023-08-20T08:15:52;21.30;99.90
54518;DHT22;40423;53.176;6.002;2023-08-20T08:18:19;21.20;99.90
54518;DHT22;40423;53.176;6.002;2023-08-20T08:20:45;21.20;99.90
54518;DHT22;40423;53.176;6.002;2023-08-20T08:23:10;21.40;99.90
54518;DHT22;40423;53.176;6.002;2023-08-20T08:25:36;21.60;99.90
54518;DHT22;40423;53.176;6.002;2023-08-20T08:28:03;21.70;99.90
54518;DHT22;40423;53.176;6.002;2023-08-20T08:30:29;21.70;99.90
54518;DHT22;40423;53.176;6.002;2023-08-20T08:32:55;21.60;99.90
54518;DHT22;40423;53.176;6.002;2023-08-20T08:35:21;21.50;99.90
54518;DHT22;40423;53.176;6.002;2023-08-20T08:37:46;21.50;99.90
54518;DHT22;40423;53.176;6.002;2023-08-20T08:40:12;21.70;99.90
54518;DHT22;40423;53.176;6.002;2023-08-20T08:42:38;21.80;99.90
54518;DHT22;40423;53.176;6.002;2023-08-20T08:45:06;21.80;99.90
54518;DHT22;40423;53.176;6.002;2023-08-20T08:47:32;21.60;99.90
54518;DHT22;40423;53.176;6.002;2023-08-20T08:49:59;21.60;99.90
54518;DHT22;40423;53.176;6.002;2023-08-20T08:52:26;21.70;99.90
54518;DHT22;40423;53.176;6.002;2023-08-20T08:54:52;21.80;99.90
54518;DHT22;40423;53.176;6.002;2023-08-20T08:57:18;22.00;99.90
54518;DHT22;40423;53.176;6.002;2023-08-20T08:59:44;22.10;99.90
54518;DHT22;40423;53.176;6.002;2023-08-20T09:02:12;22.30;99.90
54518;DHT22;40423;53.176;6.002;2023-08-20T09:04:41;22.30;99.90
54518;DHT22;40423;53.176;6.002;2023-08-20T09:07:16;22.50;99.90
54518;DHT22;40423;53.176;6.002;2023-08-20T09:09:43;22.80;99.90
54518;DHT22;40423;53.176;6.002;2023-08-20T09:12:16;22.90;99.90
54518;DHT22;40423;53.176;6.002;2023-08-20T09:14:46;23.10;99.90
54518;DHT22;40423;53.176;6.002;2023-08-20T09:17:13;23.00;99.90
54518;DHT22;40423;53.176;6.002;2023-08-20T09:19:39;23.10;99.90
54518;DHT22;40423;53.176;6.002;2023-08-20T09:22:05;23.20;99.90
54518;DHT22;40423;53.176;6.002;2023-08-20T09:24:38;23.30;99.90
54518;DHT22;40423;53.176;6.002;2023-08-20T09:27:04;23.40;99.90
54518;DHT22;40423;53.176;6.002;2023-08-20T09:29:44;23.50;99.90
54518;DHT22;40423;53.176;6.002;2023-08-20T09:32:18;23.80;99.90
54518;DHT22;40423;53.176;6.002;2023-08-20T09:34:44;24.00;99.90
54518;DHT22;40423;53.176;6.002;2023-08-20T09:37:14;23.50;99.90
54518;DHT22;40423;53.176;6.002;2023-08-20T09:39:41;23.50;99.90
54518;DHT22;40423;53.176;6.002;2023-08-20T09:42:07;23.50;99.90
54518;DHT22;40423;53.176;6.002;2023-08-20T09:44:35;23.70;99.90
54518;DHT22;40423;53.176;6.002;2023-08-20T09:47:04;24.00;99.90
54518;DHT22;40423;53.176;6.002;2023-08-20T09:49:35;24.20;99.90
54518;DHT22;40423;53.176;6.002;2023-08-20T09:52:04;24.10;99.90
54518;DHT22;40423;53.176;6.002;2023-08-20T09:55:03;24.10;99.90
54518;DHT22;40423;53.176;6.002;2023-08-20T09:57:38;23.70;99.90
54518;DHT22;40423;53.176;6.002;2023-08-20T10:00:09;23.50;99.90
54518;DHT22;40423;53.176;6.002;2023-08-20T10:02:35;23.70;99.90
54518;DHT22;40423;53.176;6.002;2023-08-20T10:05:04;23.70;99.90
54518;DHT22;40423;53.176;6.002;2023-08-20T10:07:31;23.70;99.90
54518;DHT22;40423;53.176;6.002;2023-08-20T10:09:58;23.80;99.90
54518;DHT22;40423;53.176;6.002;2023-08-20T10:12:29;24.00;99.90
54518;DHT22;40423;53.176;6.002;2023-08-20T10:14:59;24.30;99.90
54518;DHT22;40423;53.176;6.002;2023-08-20T10:17:28;24.20;99.90
54518;DHT22;40423;53.176;6.002;2023-08-20T10:19:58;24.00;99.90
54518;DHT22;40423;53.176;6.002;2023-08-20T10:22:35;24.20;99.90
54518;DHT22;40423;53.176;6.002;2023-08-20T10:25:05;24.50;99.90
54518;DHT22;40423;53.176;6.002;2023-08-20T10:27:33;24.60;99.90
54518;DHT22;40423;53.176;6.002;2023-08-20T10:30:00;24.80;99.90
54518;DHT22;40423;53.176;6.002;2023-08-20T10:35:11;24.90;99.90
54518;DHT22;40423;53.176;6.002;2023-08-20T10:37:37;24.90;99.90
54518;DHT22;40423;53.176;6.002;2023-08-20T10:40:06;24.90;99.90
54518;DHT22;40423;53.176;6.002;2023-08-20T10:42:41;24.70;99.90
54518;DHT22;40423;53.176;6.002;2023-08-20T10:45:08;24.60;99.90
54518;DHT22;40423;53.176;6.002;2023-08-20T10:47:44;24.80;99.90
54518;DHT22;40423;53.176;6.002;2023-08-20T10:50:16;24.80;99.90
54518;DHT22;40423;53.176;6.002;2023-08-20T10:52:48;25.00;99.90
54518;DHT22;40423;53.176;6.002;2023-08-20T10:55:15;25.20;99.90
54518;DHT22;40423;53.176;6.002;2023-08-20T10:57:57;25.30;99.90
54518;DHT22;40423;53.176;6.002;2023-08-20T11:00:25;25.60;99.90
54518;DHT22;40423;53.176;6.002;2023-08-20T11:02:52;25.80;99.90
54518;DHT22;40423;53.176;6.002;2023-08-20T11:05:19;26.00;99.90
54518;DHT22;40423;53.176;6.002;2023-08-20T11:07:47;26.00;99.90
54518;DHT22;40423;53.176;6.002;2023-08-20T11:10:14;25.60;99.90
54518;DHT22;40423;53.176;6.002;2023-08-20T11:12:41;25.20;99.90
54518;DHT22;40423;53.176;6.002;2023-08-20T11:15:09;25.20;99.90
54518;DHT22;40423;53.176;6.002;2023-08-20T11:17:35;25.10;99.80
54518;DHT22;40423;53.176;6.002;2023-08-20T11:20:06;25.10;99.90
54518;DHT22;40423;53.176;6.002;2023-08-20T11:22:33;25.30;99.90
54518;DHT22;40423;53.176;6.002;2023-08-20T11:24:59;25.50;99.90
54518;DHT22;40423;53.176;6.002;2023-08-20T11:27:28;25.70;98.90
54518;DHT22;40423;53.176;6.002;2023-08-20T11:29:54;25.60;98.90
54518;DHT22;40423;53.176;6.002;2023-08-20T11:32:23;25.60;99.80
54518;DHT22;40423;53.176;6.002;2023-08-20T11:34:49;25.80;99.00
54518;DHT22;40423;53.176;6.002;2023-08-20T11:37:19;25.70;98.30
54518;DHT22;40423;53.176;6.002;2023-08-20T11:39:50;25.50;96.80
54518;DHT22;40423;53.176;6.002;2023-08-20T11:42:16;25.60;98.50
54518;DHT22;40423;53.176;6.002;2023-08-20T11:44:48;25.90;98.90
54518;DHT22;40423;53.176;6.002;2023-08-20T11:47:17;26.10;98.90
54518;DHT22;40423;53.176;6.002;2023-08-20T11:49:44;26.20;98.50
54518;DHT22;40423;53.176;6.002;2023-08-20T11:52:10;26.40;98.60
54518;DHT22;40423;53.176;6.002;2023-08-20T11:54:38;26.30;98.10
54518;DHT22;40423;53.176;6.002;2023-08-20T11:57:05;26.20;98.30
54518;DHT22;40423;53.176;6.002;2023-08-20T11:59:43;26.10;98.20
54518;DHT22;40423;53.176;6.002;2023-08-20T12:02:09;25.90;98.70
54518;DHT22;40423;53.176;6.002;2023-08-20T12:04:35;26.00;98.90
54518;DHT22;40423;53.176;6.002;2023-08-20T12:07:09;26.30;99.00
54518;DHT22;40423;53.176;6.002;2023-08-20T12:09:35;26.40;98.60
54518;DHT22;40423;53.176;6.002;2023-08-20T12:12:02;26.40;96.70
54518;DHT22;40423;53.176;6.002;2023-08-20T12:14:28;26.00;97.80
54518;DHT22;40423;53.176;6.002;2023-08-20T12:16:54;25.70;97.80
54518;DHT22;40423;53.176;6.002;2023-08-20T12:19:20;25.10;98.70
54518;DHT22;40423;53.176;6.002;2023-08-20T12:21:46;25.20;99.10
54518;DHT22;40423;53.176;6.002;2023-08-20T12:24:12;25.10;98.40
54518;DHT22;40423;53.176;6.002;2023-08-20T12:26:39;25.00;98.30
54518;DHT22;40423;53.176;6.002;2023-08-20T12:29:05;25.20;99.20
54518;DHT22;40423;53.176;6.002;2023-08-20T12:31:34;25.40;99.00
54518;DHT22;40423;53.176;6.002;2023-08-20T12:34:19;25.50;98.90
54518;DHT22;40423;53.176;6.002;2023-08-20T12:36:47;25.40;97.70
54518;DHT22;40423;53.176;6.002;2023-08-20T12:39:12;25.20;97.20
54518;DHT22;40423;53.176;6.002;2023-08-20T12:41:39;25.30;97.90
54518;DHT22;40423;53.176;6.002;2023-08-20T12:44:05;25.30;98.80
54518;DHT22;40423;53.176;6.002;2023-08-20T12:46:31;25.30;98.70
54518;DHT22;40423;53.176;6.002;2023-08-20T12:48:57;25.10;98.90
54518;DHT22;40423;53.176;6.002;2023-08-20T12:51:22;24.90;99.10
54518;DHT22;40423;53.176;6.002;2023-08-20T12:53:48;25.00;99.40
54518;DHT22;40423;53.176;6.002;2023-08-20T12:56:14;25.10;99.30
54518;DHT22;40423;53.176;6.002;2023-08-20T12:58:41;25.10;99.00
54518;DHT22;40423;53.176;6.002;2023-08-20T13:01:07;25.10;98.80
54518;DHT22;40423;53.176;6.002;2023-08-20T13:03:33;25.20;98.90
54518;DHT22;40423;53.176;6.002;2023-08-20T13:06:00;25.00;98.70
54518;DHT22;40423;53.176;6.002;2023-08-20T13:08:26;24.80;99.10
54518;DHT22;40423;53.176;6.002;2023-08-20T13:10:56;25.10;98.90
54518;DHT22;40423;53.176;6.002;2023-08-20T13:13:23;25.20;98.90
54518;DHT22;40423;53.176;6.002;2023-08-20T13:15:51;25.50;98.90
54518;DHT22;40423;53.176;6.002;2023-08-20T13:18:18;25.50;98.70
54518;DHT22;40423;53.176;6.002;2023-08-20T13:20:44;25.40;98.80
54518;DHT22;40423;53.176;6.002;2023-08-20T13:23:10;25.40;98.90
54518;DHT22;40423;53.176;6.002;2023-08-20T13:25:36;25.50;99.20
54518;DHT22;40423;53.176;6.002;2023-08-20T13:28:02;25.40;98.70
54518;DHT22;40423;53.176;6.002;2023-08-20T13:30:28;25.20;98.50
54518;DHT22;40423;53.176;6.002;2023-08-20T13:32:54;25.30;98.90
54518;DHT22;40423;53.176;6.002;2023-08-20T13:35:20;25.60;98.20
54518;DHT22;40423;53.176;6.002;2023-08-20T13:37:46;25.90;97.90
54518;DHT22;40423;53.176;6.002;2023-08-20T13:40:12;26.20;97.70
54518;DHT22;40423;53.176;6.002;2023-08-20T13:42:38;26.10;98.30
54518;DHT22;40423;53.176;6.002;2023-08-20T13:45:04;26.20;97.10
54518;DHT22;40423;53.176;6.002;2023-08-20T13:47:30;25.70;97.60
54518;DHT22;40423;53.176;6.002;2023-08-20T13:49:56;25.60;97.80
54518;DHT22;40423;53.176;6.002;2023-08-20T13:52:22;25.80;97.80
54518;DHT22;40423;53.176;6.002;2023-08-20T13:54:48;25.70;97.30
54518;DHT22;40423;53.176;6.002;2023-08-20T13:57:14;26.00;97.80
54518;DHT22;40423;53.176;6.002;2023-08-20T13:59:39;26.20;97.20
54518;DHT22;40423;53.176;6.002;2023-08-20T14:02:05;26.20;97.70
54518;DHT22;40423;53.176;6.002;2023-08-20T14:04:31;26.30;97.70
54518;DHT22;40423;53.176;6.002;2023-08-20T14:06:57;26.60;97.20
54518;DHT22;40423;53.176;6.002;2023-08-20T14:09:22;26.10;97.50
54518;DHT22;40423;53.176;6.002;2023-08-20T14:11:48;26.30;97.90
54518;DHT22;40423;53.176;6.002;2023-08-20T14:14:14;26.40;97.20
54518;DHT22;40423;53.176;6.002;2023-08-20T14:16:40;26.10;96.10
54518;DHT22;40423;53.176;6.002;2023-08-20T14:19:06;26.20;96.90
54518;DHT22;40423;53.176;6.002;2023-08-20T14:21:31;26.00;97.10
54518;DHT22;40423;53.176;6.002;2023-08-20T14:23:57;26.10;97.50
54518;DHT22;40423;53.176;6.002;2023-08-20T14:26:23;25.90;97.00
54518;DHT22;40423;53.176;6.002;2023-08-20T14:28:49;25.90;97.80
54518;DHT22;40423;53.176;6.002;2023-08-20T14:31:15;26.00;97.80
54518;DHT22;40423;53.176;6.002;2023-08-20T14:33:40;26.00;98.00
54518;DHT22;40423;53.176;6.002;2023-08-20T14:36:06;26.10;97.70
54518;DHT22;40423;53.176;6.002;2023-08-20T14:38:32;25.80;97.20
54518;DHT22;40423;53.176;6.002;2023-08-20T14:41:02;25.70;97.50
54518;DHT22;40423;53.176;6.002;2023-08-20T14:43:28;25.20;96.90
54518;DHT22;40423;53.176;6.002;2023-08-20T14:45:54;25.20;97.00
54518;DHT22;40423;53.176;6.002;2023-08-20T14:48:21;25.10;97.60
54518;DHT22;40423;53.176;6.002;2023-08-20T14:50:48;25.10;97.90
54518;DHT22;40423;53.176;6.002;2023-08-20T14:53:14;24.90;98.30
54518;DHT22;40423;53.176;6.002;2023-08-20T14:55:40;24.80;98.70
54518;DHT22;40423;53.176;6.002;2023-08-20T14:58:05;24.80;98.70
54518;DHT22;40423;53.176;6.002;2023-08-20T15:00:32;24.80;98.70
54518;DHT22;40423;53.176;6.002;2023-08-20T15:02:58;24.70;98.50
54518;DHT22;40423;53.176;6.002;2023-08-20T15:05:24;24.60;98.30
54518;DHT22;40423;53.176;6.002;2023-08-20T15:07:50;24.40;98.10
54518;DHT22;40423;53.176;6.002;2023-08-20T15:10:15;24.20;98.50
54518;DHT22;40423;53.176;6.002;2023-08-20T15:12:41;24.20;98.80
54518;DHT22;40423;53.176;6.002;2023-08-20T15:15:07;24.20;98.70
54518;DHT22;40423;53.176;6.002;2023-08-20T15:17:36;24.20;98.90
54518;DHT22;40423;53.176;6.002;2023-08-20T15:20:03;24.00;98.90
54518;DHT22;40423;53.176;6.002;2023-08-20T15:22:39;24.00;98.90
54518;DHT22;40423;53.176;6.002;2023-08-20T15:28:46;24.00;98.40
54518;DHT22;40423;53.176;6.002;2023-08-20T15:31:12;24.00;98.80
54518;DHT22;40423;53.176;6.002;2023-08-20T15:33:37;24.00;98.90
54518;DHT22;40423;53.176;6.002;2023-08-20T15:36:03;24.00;98.90
54518;DHT22;40423;53.176;6.002;2023-08-20T15:38:29;23.90;98.20
54518;DHT22;40423;53.176;6.002;2023-08-20T15:40:55;23.70;97.40
54518;DHT22;40423;53.176;6.002;2023-08-20T15:43:20;23.70;98.00
54518;DHT22;40423;53.176;6.002;2023-08-20T15:45:49;23.70;98.10